Time;durP1;ratioP1;P1;durP2;ratioP2;P2;SDS_P1;SDS_P2;PMS_P1;PMS_P2;Temp;Humidity;BMP_temperature;BMP_pressure;BME280_temperature;BME280_humidity;BME280_pressure;Samples;Min_cycle;Max_cycle;Signal;HPM_P1;HPM_P2
2022/03/01 00:04:38;;;;;;;19.65;11.85;;;;;;;-1.72;75.94;102698.63;10312069;28;20074;-84
2022/03/01 00:09:39;;;;;;;18.70;12.45;;;;;;;-1.73;75.73;102690.03;10314537;28;20034;-84
2022/03/01 00:14:39;;;;;;;22.80;12.77;;;;;;;-1.68;76.32;102698.28;10339302;28;20116;-85
2022/03/01 00:19:40;;;;;;;19.52;13.38;;;;;;;-1.55;75.02;102700.78;10337457;28;20385;-85
2022/03/01 00:24:40;;;;;;;18.05;9.15;;;;;;;-1.60;75.49;102692.47;10355194;28;20109;-85
2022/03/01 00:29:41;;;;;;;23.23;11.90;;;;;;;-1.75;75.64;102703.38;10354020;28;20026;-85
2022/03/01 00:34:41;;;;;;;15.93;10.43;;;;;;;-1.78;76.31;102694.56;10333577;28;20109;-85
2022/03/01 00:39:42;;;;;;;25.23;14.77;;;;;;;-1.80;76.00;102698.56;10297509;28;20046;-84
2022/03/01 00:44:42;;;;;;;22.17;13.35;;;;;;;-1.82;75.71;102699.13;10319192;28;20046;-85
2022/03/01 00:49:43;;;;;;;20.05;11.98;;;;;;;-1.90;76.29;102705.84;10358815;28;20034;-85
2022/03/01 00:54:43;;;;;;;14.40;9.93;;;;;;;-1.97;75.98;102709.28;10318654;28;20546;-85
2022/03/01 00:59:44;;;;;;;22.67;13.82;;;;;;;-1.98;76.89;102717.72;10338969;28;20065;-85
2022/03/01 01:04:44;;;;;;;29.45;15.30;;;;;;;-1.93;76.55;102714.09;10341018;28;20069;-85
2022/03/01 01:09:47;;;;;;;25.73;14.10;;;;;;;-1.84;76.35;102700.56;10373083;28;20489;-85
2022/03/01 01:14:48;;;;;;;21.17;11.95;;;;;;;-1.75;76.38;102690.53;10335701;28;20065;-85
2022/03/01 01:19:49;;;;;;;20.55;11.32;;;;;;;-1.75;75.92;102691.47;10336709;28;20441;-85
2022/03/01 01:24:49;;;;;;;22.38;11.32;;;;;;;-1.86;77.28;102684.06;10332118;28;20073;-85
2022/03/01 01:29:50;;;;;;;21.00;10.88;;;;;;;-2.09;77.43;102689.75;10335233;28;20517;-85
2022/03/01 01:34:50;;;;;;;21.63;15.00;;;;;;;-2.23;78.27;102682.84;10342822;28;20092;-85
2022/03/01 01:39:51;;;;;;;25.93;11.93;;;;;;;-2.31;78.24;102679.31;10345035;28;20759;-83
2022/03/01 01:44:51;;;;;;;24.50;13.00;;;;;;;-2.42;78.08;102679.56;10358197;28;20073;-82
2022/03/01 01:49:52;;;;;;;24.30;13.70;;;;;;;-2.50;78.86;102681.13;10339152;28;20038;-85
2022/03/01 01:54:53;;;;;;;25.40;12.90;;;;;;;-2.46;78.59;102691.06;10338539;28;20516;-85
2022/03/01 01:59:54;;;;;;;26.17;15.10;;;;;;;-2.31;78.03;102693.75;10305768;28;20038;-85
2022/03/01 02:04:55;;;;;;;26.85;15.20;;;;;;;-2.21;78.16;102676.25;10329138;28;20297;-85
2022/03/01 02:09:55;;;;;;;27.42;13.75;;;;;;;-2.17;78.20;102677.59;10377536;28;20049;-85
2022/03/01 02:14:56;;;;;;;24.00;14.90;;;;;;;-2.22;78.69;102680.50;10347213;28;20072;-86
2022/03/01 02:19:56;;;;;;;26.57;14.13;;;;;;;-2.16;78.97;102669.16;10377914;28;20076;-85
2022/03/01 02:24:57;;;;;;;26.10;14.63;;;;;;;-2.03;79.08;102658.81;10320314;28;20160;-84
2022/03/01 02:29:57;;;;;;;39.63;16.10;;;;;;;-2.10;79.05;102667.38;10319204;28;20493;-85
2022/03/01 02:34:58;;;;;;;23.40;14.03;;;;;;;-2.21;79.97;102655.75;10376763;28;20057;-85
2022/03/01 02:39:58;;;;;;;27.00;14.38;;;;;;;-2.33;79.90;102665.38;10308666;28;20142;-85
2022/03/01 02:44:59;;;;;;;23.42;13.27;;;;;;;-2.47;80.43;102661.00;10375371;28;20069;-85
2022/03/01 02:49:59;;;;;;;26.23;12.60;;;;;;;-2.59;81.23;102659.44;10359226;28;20117;-84
2022/03/01 02:55:01;;;;;;;19.63;14.27;;;;;;;-2.72;81.29;102662.97;10343048;28;20488;-85
2022/03/01 03:00:01;;;;;;;21.07;12.57;;;;;;;-2.86;81.94;102673.06;10338479;28;20038;-84
2022/03/01 03:05:02;;;;;;;33.10;14.83;;;;;;;-3.01;82.45;102662.66;10357792;28;20046;-84
2022/03/01 03:10:03;;;;;;;19.37;9.83;;;;;;;-2.97;82.88;102657.22;10358167;28;20042;-84
2022/03/01 03:15:05;;;;;;;24.10;14.47;;;;;;;-2.94;82.79;102659.28;10301494;28;20026;-85
2022/03/01 03:20:05;;;;;;;;;;;;;;;-2.95;82.96;102666.03;10337680;28;20119;-84
2022/03/01 03:25:06;;;;;;;22.10;13.95;;;;;;;-2.89;82.79;102662.41;10317706;28;20381;-84
2022/03/01 03:30:08;;;;;;;26.37;13.03;;;;;;;-2.85;82.62;102656.97;10334620;28;20038;-85
2022/03/01 03:35:08;;;;;;;23.33;15.35;;;;;;;-2.81;81.98;102652.47;10332972;28;20371;-85
2022/03/01 03:40:12;;;;;;;24.17;14.93;;;;;;;-2.75;81.91;102646.28;10330768;28;20034;-85
2022/03/01 03:45:15;;;;;;;24.35;15.23;;;;;;;-2.72;81.60;102639.00;10373962;28;20481;-84
2022/03/01 03:50:16;;;;;;;26.75;16.50;;;;;;;-2.54;81.16;102645.56;10354686;28;20035;-85
2022/03/01 03:55:16;;;;;;;23.90;15.17;;;;;;;-2.52;80.46;102638.97;10316421;28;20069;-85
2022/03/01 04:00:17;;;;;;;23.33;14.00;;;;;;;-2.50;80.64;102645.22;10348841;28;20137;-84
2022/03/01 04:05:17;;;;;;;23.83;15.57;;;;;;;-2.52;81.15;102649.25;10311296;28;20091;-84
2022/03/01 04:10:21;;;;;;;26.87;16.60;;;;;;;-2.54;81.85;102641.38;10335381;28;20125;-84
2022/03/01 04:15:24;;;;;;;25.30;15.00;;;;;;;-2.57;81.69;102632.34;10314549;28;20363;-85
2022/03/01 04:20:25;;;;;;;25.05;16.17;;;;;;;-2.45;82.04;102644.19;10319101;28;20041;-85
2022/03/01 04:25:25;;;;;;;22.63;14.47;;;;;;;-2.30;82.04;102634.03;10298139;28;20037;-84
2022/03/01 04:30:27;;;;;;;20.80;13.30;;;;;;;-2.17;81.37;102640.00;10333845;28;20053;-85
2022/03/01 04:35:28;;;;;;;;;;;;;;;-2.24;80.62;102643.47;10310980;28;20030;-84
2022/03/01 04:40:28;;;;;;;25.25;13.27;;;;;;;-2.39;80.88;102639.84;10353139;28;19924;-85
2022/03/01 04:45:30;;;;;;;23.90;14.43;;;;;;;-2.39;81.82;102642.41;10371243;28;20053;-85
2022/03/01 04:50:31;;;;;;;24.08;14.68;;;;;;;-2.39;81.55;102642.41;10321760;28;20030;-84
2022/03/01 04:55:32;;;;;;;25.77;15.00;;;;;;;-2.40;82.03;102645.69;10338381;28;20022;-84
2022/03/01 05:00:33;;;;;;;25.23;14.73;;;;;;;-2.40;82.34;102644.78;10333355;28;20062;-84
2022/03/01 05:05:33;;;;;;;21.48;15.45;;;;;;;-2.29;83.49;102649.66;10342196;28;20761;-85
2022/03/01 05:10:36;;;;;;;30.07;17.20;;;;;;;-2.11;83.83;102648.50;10347900;28;20117;-84
2022/03/01 05:15:37;;;;;;;30.38;16.88;;;;;;;-2.12;83.73;102640.59;10368013;28;20034;-84
2022/03/01 05:20:37;;;;;;;33.63;20.63;;;;;;;-2.07;83.79;102639.56;10347309;28;20116;-85
2022/03/01 05:25:38;;;;;;;31.87;21.10;;;;;;;-1.93;83.51;102644.78;10343628;28;20034;-85
2022/03/01 05:30:38;;;;;;;25.30;14.70;;;;;;;-1.82;82.81;102637.50;10360907;28;20030;-84
2022/03/01 05:35:39;;;;;;;31.10;16.90;;;;;;;-1.88;82.45;102636.75;10343651;28;20505;-85
2022/03/01 05:40:42;;;;;;;29.25;16.90;;;;;;;-1.79;82.68;102627.63;10318391;28;20026;-84
2022/03/01 05:45:42;;;;;;;27.58;18.00;;;;;;;-1.75;82.67;102632.41;10349993;28;20037;-84
2022/03/01 05:50:43;;;;;;;28.63;16.13;;;;;;;-1.66;81.50;102627.50;10339243;28;20080;-81
2022/03/01 05:55:43;;;;;;;32.47;19.97;;;;;;;-1.74;81.82;102629.13;10343057;28;20036;-80
2022/03/01 06:00:44;;;;;;;25.77;14.87;;;;;;;-1.67;81.51;102621.47;10349498;28;20048;-81
2022/03/01 06:05:44;;;;;;;28.98;16.55;;;;;;;-1.66;81.54;102619.81;10361404;28;20064;-83
2022/03/01 06:10:46;;;;;;;25.13;14.50;;;;;;;-1.62;81.37;102619.44;10309259;28;20474;-82
2022/03/01 06:15:48;;;;;;;26.63;16.83;;;;;;;-1.68;81.29;102619.63;10350170;28;20062;-82
2022/03/01 06:20:48;;;;;;;;;;;;;;;-1.71;80.78;102621.81;10307600;28;20045;-83
2022/03/01 06:25:49;;;;;;;25.60;16.00;;;;;;;-1.64;80.64;102641.44;10352487;28;19972;-83
2022/03/01 06:30:49;;;;;;;20.47;13.47;;;;;;;-1.74;80.85;102634.25;10336707;28;20033;-84
2022/03/01 06:35:50;;;;;;;20.35;12.18;;;;;;;-1.81;80.44;102640.25;10351761;28;20065;-82
2022/03/01 06:40:55;;;;;;;23.17;13.80;;;;;;;-1.94;80.88;102647.13;10338504;28;20033;-83
2022/03/01 06:45:56;;;;;;;24.67;13.52;;;;;;;-2.05;81.93;102643.22;10347138;28;20054;-82
2022/03/01 06:50:56;;;;;;;23.50;15.90;;;;;;;-1.99;82.65;102641.44;10342354;28;20034;-82
2022/03/01 06:55:57;;;;;;;23.10;12.50;;;;;;;-1.82;81.76;102632.38;10370057;28;20056;-83
2022/03/01 07:01:00;;;;;;;22.70;13.25;;;;;;;-1.55;81.65;102629.75;10368805;28;20076;-83
2022/03/01 07:06:01;;;;;;;23.98;13.45;;;;;;;-1.20;80.05;102633.22;10372712;28;20381;-83
2022/03/01 07:11:01;;;;;;;25.30;14.15;;;;;;;-0.95;79.25;102641.38;10326162;28;20030;-83
2022/03/01 07:16:03;;;;;;;24.52;13.02;;;;;;;-0.60;78.71;102647.31;10355206;28;20038;-83
2022/03/01 07:21:04;;;;;;;24.08;13.70;;;;;;;0.03;76.09;102655.59;10310391;28;20030;-84
2022/03/01 07:26:05;;;;;;;22.98;13.15;;;;;;;0.75;74.75;102653.56;10336075;28;20472;-82
2022/03/01 07:31:05;;;;;;;18.40;11.15;;;;;;;1.92;70.53;102641.75;10358134;28;20104;-83
2022/03/01 07:36:06;;;;;;;18.95;10.98;;;;;;;4.49;62.27;102636.72;10336284;28;20117;-83
2022/03/01 07:41:06;;;;;;;16.65;10.18;;;;;;;5.62;54.23;102644.22;10347618;28;20041;-83
2022/03/01 07:46:11;;;;;;;20.05;11.80;;;;;;;4.85;54.83;102642.09;10369084;28;20065;-84
2022/03/01 07:51:12;;;;;;;17.02;10.65;;;;;;;4.21;56.77;102644.28;10353554;28;20041;-83
2022/03/01 07:56:14;;;;;;;16.10;9.35;;;;;;;3.80;58.36;102650.56;10339123;28;20057;-84
2022/03/01 08:01:14;;;;;;;16.98;10.70;;;;;;;3.83;57.11;102655.16;10315328;28;20022;-83
2022/03/01 08:06:16;;;;;;;15.23;9.48;;;;;;;4.10;56.29;102646.69;10315745;28;20557;-84
2022/03/01 08:11:16;;;;;;;28.73;11.77;;;;;;;4.15;57.55;102648.84;10320244;28;20034;-85
2022/03/01 08:16:17;;;;;;;17.13;11.32;;;;;;;4.27;57.70;102660.47;10349128;28;20444;-82
2022/03/01 08:21:17;;;;;;;16.23;10.48;;;;;;;4.47;57.08;102691.03;10335906;28;20038;-83
2022/03/01 08:26:18;;;;;;;18.60;11.00;;;;;;;4.64;55.59;102656.41;10341495;28;20100;-84
2022/03/01 08:31:18;;;;;;;20.58;10.65;;;;;;;4.48;57.26;102664.34;10343040;28;20030;-84
2022/03/01 08:36:19;;;;;;;19.25;14.05;;;;;;;4.19;57.19;102653.59;10330463;28;20393;-84
2022/03/01 08:41:25;;;;;;;17.05;10.25;;;;;;;3.96;57.18;102681.56;10313382;28;20077;-86
2022/03/01 08:46:26;;;;;;;17.38;10.95;;;;;;;3.82;57.12;102669.75;10322446;28;20038;-85
2022/03/01 08:51:27;;;;;;;18.95;11.52;;;;;;;3.93;57.59;102668.31;10312926;28;20031;-84
2022/03/01 08:56:27;;;;;;;20.27;9.65;;;;;;;4.18;56.29;102677.66;10330382;28;20113;-84
2022/03/01 09:01:28;;;;;;;16.17;9.50;;;;;;;4.41;55.52;102678.34;10331545;28;20031;-84
2022/03/01 09:06:28;;;;;;;15.20;10.32;;;;;;;4.80;56.77;102681.28;10355981;28;20054;-84
2022/03/01 09:11:29;;;;;;;17.38;11.93;;;;;;;5.35;54.56;102670.28;10351859;28;20086;-85
2022/03/01 09:16:29;;;;;;;17.48;9.88;;;;;;;5.36;53.97;102669.50;10336381;28;20107;-85
2022/03/01 09:21:30;;;;;;;19.08;10.70;;;;;;;5.47;54.04;102659.25;10334691;28;20072;-85
2022/03/01 09:26:31;;;;;;;18.27;11.30;;;;;;;5.17;54.03;102669.38;10367236;28;20068;-81
2022/03/01 09:31:31;;;;;;;16.05;9.43;;;;;;;5.11;53.97;102679.16;10345879;28;20379;-85
2022/03/01 09:36:32;;;;;;;14.02;10.35;;;;;;;5.27;55.70;102686.78;10317364;28;20129;-83
2022/03/01 09:41:33;;;;;;;18.73;12.07;;;;;;;5.43;54.18;102676.22;10331048;28;20069;-82
2022/03/01 09:46:33;;;;;;;20.90;11.32;;;;;;;5.47;53.75;102677.44;10335140;28;20042;-80
2022/03/01 09:51:35;;;;;;;19.48;9.70;;;;;;;5.46;53.88;102683.41;10328564;28;20033;-82
2022/03/01 09:56:36;;;;;;;18.33;11.68;;;;;;;5.53;53.67;102686.72;10330886;28;20041;-80
2022/03/01 10:01:46;;;;;;;15.13;10.23;;;;;;;5.77;54.16;102687.28;10307284;28;20053;-82
2022/03/01 10:06:48;;;;;;;16.73;9.02;;;;;;;6.05;54.00;102689.94;10332467;28;20042;-81
2022/03/01 10:11:49;;;;;;;10.32;7.53;;;;;;;6.17;52.22;102693.72;10307528;28;20030;-81
2022/03/01 10:16:49;;;;;;;17.10;10.13;;;;;;;6.11;52.53;102690.53;10335876;28;21054;-81
2022/03/01 10:21:57;;;;;;;16.13;10.00;;;;;;;6.26;52.95;102691.09;10347677;28;20065;-83
2022/03/01 10:27:02;;;;;;;31.88;11.45;;;;;;;6.41;50.68;102696.78;10340316;28;20029;-84
2022/03/01 10:32:12;;;;;;;14.68;9.25;;;;;;;6.58;51.14;102697.47;10335408;28;20137;-85
2022/03/01 10:37:23;;;;;;;15.85;8.45;;;;;;;6.66;49.82;102695.59;10338144;28;20034;-83
2022/03/01 10:42:27;;;;;;;19.00;10.23;;;;;;;7.10;49.07;102692.63;10309602;28;20482;-81
2022/03/01 10:47:28;;;;;;;14.98;9.13;;;;;;;7.42;48.16;102692.94;10332452;28;20046;-83
2022/03/01 10:52:36;;;;;;;20.25;10.73;;;;;;;7.78;46.97;102696.06;10312897;28;20038;-82
2022/03/01 10:57:36;;;;;;;16.10;11.13;;;;;;;8.15;47.02;102681.03;10353140;28;20121;-83
2022/03/01 11:02:37;;;;;;;17.83;10.15;;;;;;;11.98;40.04;102665.50;10344137;28;20036;-84
2022/03/01 11:07:37;;;;;;;17.48;9.35;;;;;;;15.36;34.04;102654.41;10336204;28;20031;-81
2022/03/01 11:12:39;;;;;;;18.92;9.57;;;;;;;15.14;33.20;102660.19;10316184;28;20065;-82
2022/03/01 11:18:13;;;;;;;18.83;9.95;;;;;;;14.14;34.03;102657.75;10339254;28;20506;-82
2022/03/01 11:23:15;;;;;;;17.40;9.93;;;;;;;12.39;35.86;102655.19;10342577;28;20491;-82
2022/03/01 11:28:18;;;;;;;18.63;11.45;;;;;;;12.17;36.22;102666.84;10311860;28;20030;-89
2022/03/01 11:33:26;;;;;;;16.63;11.07;;;;;;;13.76;34.81;102649.28;10316378;28;20124;-89
2022/03/01 11:38:32;;;;;;;20.45;11.15;;;;;;;15.23;31.32;102651.91;10344133;28;20440;-86
2022/03/01 11:43:35;;;;;;;16.90;10.90;;;;;;;14.82;32.00;102657.50;10329244;28;20053;-89
2022/03/01 11:48:44;;;;;;;21.92;12.30;;;;;;;16.71;29.49;102650.13;10336611;28;20038;-88
2022/03/01 11:53:45;;;;;;;23.02;12.50;;;;;;;18.07;28.00;102641.63;10335710;28;20035;-89
2022/03/01 11:58:48;;;;;;;21.10;13.13;;;;;;;18.34;25.94;102639.28;10327060;28;20104;-89
2022/03/01 12:03:49;;;;;;;14.93;11.10;;;;;;;16.76;27.97;102642.41;10316720;28;20096;-86
2022/03/01 12:09:03;;;;;;;24.57;16.80;;;;;;;15.50;31.25;102643.72;10315870;28;20559;-88
2022/03/01 12:14:18;;;;;;;16.95;11.02;;;;;;;14.81;30.17;102637.22;10320376;28;20128;-86
2022/03/01 12:19:22;;;;;;;16.85;11.75;;;;;;;13.41;32.76;102632.13;10313972;28;20034;-89
2022/03/01 12:24:28;;;;;;;16.58;10.85;;;;;;;12.18;34.81;102610.91;10339879;28;20030;-89
2022/03/01 12:29:30;;;;;;;20.23;12.25;;;;;;;12.76;34.94;102613.03;10328884;28;20034;-81
2022/03/01 12:34:32;;;;;;;13.93;9.82;;;;;;;12.93;36.17;102609.81;10324164;28;20053;-88
2022/03/01 12:39:32;;;;;;;17.40;12.70;;;;;;;12.70;36.27;102594.25;10326573;28;20433;-88
2022/03/01 12:44:33;;;;;;;16.08;10.00;;;;;;;12.15;36.92;102593.25;10307293;28;20078;-86
2022/03/01 12:49:35;;;;;;;14.82;9.90;;;;;;;11.49;37.00;102591.22;10341358;28;20068;-87
2022/03/01 12:54:36;;;;;;;17.60;10.27;;;;;;;11.06;38.34;102587.28;10348396;28;20034;-85
2022/03/01 12:59:36;;;;;;;15.63;9.90;;;;;;;10.47;41.34;102588.19;10361933;28;20068;-86
2022/03/01 13:04:38;;;;;;;20.33;10.18;;;;;;;10.46;39.44;102583.75;10321381;28;20108;-88
2022/03/01 13:09:38;;;;;;;23.60;12.35;;;;;;;10.43;40.78;102578.28;10318697;28;20026;-88
2022/03/01 13:14:39;;;;;;;15.73;10.70;;;;;;;10.37;41.84;102580.41;10328991;28;20120;-87
2022/03/01 13:19:42;;;;;;;21.15;11.45;;;;;;;10.50;41.55;102577.97;10311900;28;20037;-87
2022/03/01 13:24:44;;;;;;;16.73;11.00;;;;;;;10.57;40.98;102589.81;10317611;28;20101;-88
2022/03/01 13:29:44;;;;;;;17.58;10.52;;;;;;;10.75;42.87;102590.28;10318550;28;20837;-87
2022/03/01 13:35:08;;;;;;;18.58;10.68;;;;;;;10.93;41.39;102590.75;10318367;28;20022;-87
2022/03/01 13:40:09;;;;;;;20.45;12.00;;;;;;;11.00;40.49;102586.84;10317379;28;20050;-87
2022/03/01 13:45:10;;;;;;;19.00;11.57;;;;;;;11.13;41.89;102575.56;10319436;28;20137;-87
2022/03/01 13:50:16;;;;;;;17.25;10.40;;;;;;;10.99;38.55;102565.00;10321111;28;20498;-87
2022/03/01 13:55:18;;;;;;;17.50;12.02;;;;;;;10.58;40.05;102562.84;10337396;28;20139;-87
2022/03/01 14:00:22;;;;;;;;;;;;;;;10.45;41.12;102544.41;10348221;28;20035;-87
2022/03/01 14:05:23;;;;;;;17.58;10.38;;;;;;;10.35;41.88;102532.28;10357785;28;19989;-87
2022/03/01 14:10:24;;;;;;;17.73;11.05;;;;;;;9.90;41.46;102535.03;10343235;28;20098;-87
2022/03/01 14:15:36;;;;;;;17.90;11.48;;;;;;;9.36;43.52;102526.53;10332043;28;20470;-87
2022/03/01 14:20:37;;;;;;;;;;;;;;;9.11;43.89;102521.06;10335931;28;20129;-87
2022/03/01 14:25:37;;;;;;;18.15;11.43;;;;;;;8.88;44.16;102522.72;10347242;28;19936;-85
2022/03/01 14:30:40;;;;;;;19.45;11.63;;;;;;;8.64;46.63;102519.00;10325691;28;20064;-87
2022/03/01 14:35:46;;;;;;;18.05;11.02;;;;;;;8.63;44.57;102514.56;10342588;28;20117;-86
2022/03/01 14:40:46;;;;;;;19.88;10.60;;;;;;;8.53;46.00;102512.94;10329003;28;20038;-86
2022/03/01 14:45:47;;;;;;;21.98;10.68;;;;;;;8.51;46.57;102507.56;10309748;28;20041;-86
2022/03/01 14:50:47;;;;;;;19.95;11.60;;;;;;;8.54;46.40;102498.16;10346541;28;20058;-84
2022/03/01 14:55:49;;;;;;;15.98;10.15;;;;;;;8.71;46.40;102497.84;10349283;28;20033;-86
2022/03/01 15:00:49;;;;;;;18.20;9.23;;;;;;;8.65;46.24;102498.28;10327259;28;20049;-87
2022/03/01 15:05:50;;;;;;;18.38;11.05;;;;;;;8.72;45.84;102484.00;10331240;28;20134;-87
2022/03/01 15:10:51;;;;;;;21.35;12.50;;;;;;;8.65;46.00;102484.28;10341410;28;20457;-87
2022/03/01 15:15:55;;;;;;;18.45;10.73;;;;;;;8.61;45.68;102482.22;10320549;28;20034;-87
2022/03/01 15:20:59;;;;;;;18.83;12.25;;;;;;;8.57;46.22;102494.13;10339829;28;20489;-84
2022/03/01 15:26:01;;;;;;;22.13;12.70;;;;;;;8.66;46.24;102483.50;10333581;28;20042;-85
2022/03/01 15:31:02;;;;;;;22.08;11.05;;;;;;;8.86;46.41;102479.91;10339451;28;20168;-84
2022/03/01 15:36:03;;;;;;;24.33;14.43;;;;;;;9.05;43.55;102487.50;10312788;28;20084;-84
2022/03/01 15:41:04;;;;;;;19.20;13.07;;;;;;;9.11;44.62;102485.38;10330787;28;20065;-85
2022/03/01 15:46:04;;;;;;;18.58;11.60;;;;;;;9.11;43.97;102487.09;10338788;28;20498;-84
2022/03/01 15:51:06;;;;;;;17.13;10.82;;;;;;;9.04;44.24;102482.19;10343914;28;20064;-85
2022/03/01 15:56:07;;;;;;;;;;;;;;;8.89;45.61;102485.38;10308702;28;20441;-85
2022/03/01 16:01:09;;;;;;;17.83;11.25;;;;;;;8.78;49.62;102473.16;10340793;28;20333;-85
2022/03/01 16:06:10;;;;;;;19.35;9.98;;;;;;;8.55;50.76;102471.28;10312034;28;20022;-85
2022/03/01 16:11:10;;;;;;;15.30;8.75;;;;;;;8.21;48.01;102467.69;10345258;28;20053;-83
2022/03/01 16:16:11;;;;;;;19.80;10.52;;;;;;;7.98;49.03;102463.19;10297436;28;20032;-84
2022/03/01 16:21:13;;;;;;;16.55;9.95;;;;;;;7.78;49.57;102467.63;10297561;28;20037;-83
2022/03/01 16:26:13;;;;;;;14.50;10.80;;;;;;;7.62;49.95;102461.88;10327967;28;20026;-84
2022/03/01 16:31:15;;;;;;;16.95;10.32;;;;;;;7.47;49.88;102465.00;10325549;28;20647;-83
2022/03/01 16:36:15;;;;;;;15.73;9.63;;;;;;;7.39;50.75;102475.53;10341420;28;20109;-83
2022/03/01 16:41:16;;;;;;;16.10;8.80;;;;;;;7.35;51.10;102475.28;10334857;28;20413;-83
2022/03/01 16:46:18;;;;;;;20.48;9.50;;;;;;;7.40;51.09;102478.28;10333425;28;20027;-83
2022/03/01 16:51:20;;;;;;;14.35;8.30;;;;;;;7.43;49.56;102480.22;10333104;28;20042;-84
2022/03/01 16:56:20;;;;;;;11.13;6.82;;;;;;;7.30;49.99;102484.38;10344244;28;20393;-84
2022/03/01 17:01:21;;;;;;;12.25;7.10;;;;;;;7.04;51.23;102474.31;10333401;28;20072;-84
2022/03/01 17:06:21;;;;;;;13.88;7.22;;;;;;;6.75;50.86;102485.66;10313456;28;20076;-83
2022/03/01 17:11:22;;;;;;;13.07;7.85;;;;;;;6.47;50.78;102488.38;10331378;28;20062;-85
2022/03/01 17:16:25;;;;;;;17.10;8.65;;;;;;;6.28;52.05;102484.13;10348297;28;20033;-82
2022/03/01 17:21:25;;;;;;;13.38;8.48;;;;;;;5.95;54.12;102490.59;10311393;28;20053;-82
2022/03/01 17:26:26;;;;;;;15.32;7.22;;;;;;;5.69;54.42;102481.31;10325431;28;20022;-83
2022/03/01 17:31:27;;;;;;;12.40;7.00;;;;;;;5.36;58.05;102507.59;10321033;28;20034;-81
2022/03/01 17:36:27;;;;;;;11.52;7.22;;;;;;;5.11;59.02;102495.81;10306238;28;20398;-86
2022/03/01 17:41:28;;;;;;;16.27;8.80;;;;;;;4.93;60.11;102494.94;10325708;28;20496;-82
2022/03/01 17:46:28;;;;;;;14.13;6.93;;;;;;;4.77;59.43;102495.13;10310334;28;20108;-84
2022/03/01 17:51:30;;;;;;;14.05;7.32;;;;;;;4.78;60.43;102493.44;10304774;28;20037;-83
2022/03/01 17:56:31;;;;;;;15.80;8.85;;;;;;;4.58;60.44;102496.69;10294705;28;20041;-83
2022/03/01 18:01:37;;;;;;;17.38;7.93;;;;;;;4.44;60.13;102500.50;10258103;28;20035;-82
2022/03/01 18:06:37;;;;;;;15.35;8.48;;;;;;;4.37;61.21;102502.50;10298387;28;20027;-83
2022/03/01 18:11:39;;;;;;;14.37;8.67;;;;;;;4.21;60.87;102500.06;10331380;28;20034;-83
2022/03/01 18:16:39;;;;;;;13.57;7.75;;;;;;;3.97;61.72;102504.63;10325874;28;20082;-84
2022/03/01 18:21:40;;;;;;;13.05;7.43;;;;;;;3.72;63.18;102511.56;10295929;28;20050;-83
2022/03/01 18:26:40;;;;;;;10.88;7.32;;;;;;;3.52;64.76;102510.47;10322307;28;20126;-83
2022/03/01 18:31:41;;;;;;;10.90;6.07;;;;;;;3.38;66.07;102515.88;10297756;28;20508;-83
2022/03/01 18:36:42;;;;;;;16.88;8.75;;;;;;;3.30;66.80;102517.69;10301550;28;20366;-83
2022/03/01 18:41:42;;;;;;;22.38;7.82;;;;;;;3.29;67.45;102515.88;10317971;28;20109;-83
2022/03/01 18:46:43;;;;;;;19.00;7.78;;;;;;;3.11;67.69;102509.69;10354879;28;20165;-83
2022/03/01 18:51:43;;;;;;;14.00;8.43;;;;;;;3.01;68.11;102517.25;10334270;28;20065;-85
2022/03/01 18:56:44;;;;;;;17.63;10.95;;;;;;;2.94;69.63;102514.00;10346674;28;20038;-84
2022/03/01 19:01:45;;;;;;;17.85;10.25;;;;;;;2.87;70.86;102520.97;10335775;28;20030;-83
2022/03/01 19:06:45;;;;;;;17.27;10.63;;;;;;;2.72;71.03;102520.25;10329150;28;20041;-82
2022/03/01 19:11:46;;;;;;;22.05;10.23;;;;;;;2.62;72.11;102524.47;10358620;28;20109;-81
2022/03/01 19:16:46;;;;;;;17.55;9.70;;;;;;;2.62;72.42;102519.28;10314596;28;20502;-83
2022/03/01 19:21:47;;;;;;;16.05;9.68;;;;;;;2.72;70.78;102508.25;10316220;28;20121;-82
2022/03/01 19:26:47;;;;;;;16.80;10.38;;;;;;;2.85;70.19;102512.16;10326386;28;20543;-82
2022/03/01 19:31:48;;;;;;;16.75;9.13;;;;;;;2.86;70.44;102501.94;10375711;28;20104;-81
2022/03/01 19:36:48;;;;;;;17.95;10.30;;;;;;;2.89;70.65;102502.25;10343507;28;20034;-82
2022/03/01 19:41:49;;;;;;;22.23;12.68;;;;;;;2.84;70.47;102503.44;10344740;28;20111;-85
2022/03/01 19:46:49;;;;;;;21.40;12.27;;;;;;;2.75;70.41;102505.06;10327498;28;20456;-86
2022/03/01 19:51:50;;;;;;;18.58;11.27;;;;;;;2.64;70.38;102509.13;10324661;28;20076;-86
2022/03/01 19:56:50;;;;;;;22.80;12.82;;;;;;;2.59;70.79;102508.63;10318444;28;20064;-87
2022/03/01 20:01:56;;;;;;;17.35;9.75;;;;;;;2.62;71.37;102497.69;10341699;28;20125;-86
2022/03/01 20:06:59;;;;;;;24.70;11.43;;;;;;;2.58;71.81;102501.63;10314311;28;20030;-84
2022/03/01 20:12:00;;;;;;;23.13;13.00;;;;;;;2.54;71.34;102504.63;10355361;28;20049;-87
2022/03/01 20:17:02;;;;;;;21.77;12.60;;;;;;;2.47;71.94;102510.81;10339088;28;20437;-85
2022/03/01 20:22:03;;;;;;;18.05;11.00;;;;;;;2.45;72.73;102507.16;10339709;28;20046;-85
2022/03/01 20:27:04;;;;;;;19.83;12.30;;;;;;;2.52;72.02;102503.56;10363466;28;20034;-86
2022/03/01 20:32:05;;;;;;;26.67;10.60;;;;;;;2.57;70.74;102504.97;10305433;28;20030;-87
2022/03/01 20:37:06;;;;;;;17.55;11.13;;;;;;;2.59;70.42;102507.72;10321657;28;20120;-88
2022/03/01 20:42:06;;;;;;;17.00;11.57;;;;;;;2.59;70.74;102511.19;10330350;28;20033;-88
2022/03/01 20:47:08;;;;;;;20.73;11.15;;;;;;;2.72;69.94;102515.09;10307624;28;20125;-86
2022/03/01 20:52:09;;;;;;;18.50;11.45;;;;;;;2.76;68.41;102502.66;10342508;28;20064;-87
2022/03/01 20:57:09;;;;;;;18.95;12.73;;;;;;;2.80;68.74;102490.94;10323274;28;20022;-86
2022/03/01 21:02:10;;;;;;;20.42;11.38;;;;;;;2.87;67.22;102498.59;10314377;28;20452;-86
2022/03/01 21:07:10;;;;;;;23.35;11.05;;;;;;;2.86;66.33;102496.78;10318995;28;20030;-86
2022/03/01 21:12:11;;;;;;;21.48;13.23;;;;;;;2.81;67.36;102513.47;10326949;28;20030;-88
2022/03/01 21:17:12;;;;;;;19.02;10.30;;;;;;;2.73;67.58;102514.34;10337088;28;20112;-87
2022/03/01 21:22:12;;;;;;;22.05;12.73;;;;;;;2.72;67.44;102516.03;10305375;28;20061;-84
2022/03/01 21:27:13;;;;;;;17.30;10.50;;;;;;;2.73;66.75;102519.50;10333302;28;20035;-84
2022/03/01 21:32:15;;;;;;;19.88;12.05;;;;;;;2.64;67.55;102515.19;10311251;28;20030;-84
2022/03/01 21:37:15;;;;;;;17.50;11.68;;;;;;;2.48;70.40;102516.91;10303250;28;20022;-84
2022/03/01 21:42:16;;;;;;;21.08;11.68;;;;;;;2.57;67.05;102517.88;10354107;28;20049;-84
2022/03/01 21:47:17;;;;;;;21.98;11.55;;;;;;;2.73;63.27;102512.69;10360540;28;20053;-84
2022/03/01 21:52:17;;;;;;;19.92;11.73;;;;;;;2.75;67.39;102520.59;10334003;28;20092;-84
2022/03/01 21:57:18;;;;;;;27.95;12.10;;;;;;;2.59;69.66;102529.28;10320012;28;20501;-84
2022/03/01 22:02:18;;;;;;;19.52;11.77;;;;;;;2.47;70.04;102513.41;10320784;28;20478;-83
2022/03/01 22:07:19;;;;;;;20.63;12.82;;;;;;;2.54;69.21;102512.38;10307397;28;20042;-84
2022/03/01 22:12:19;;;;;;;22.17;13.95;;;;;;;2.43;70.11;102506.09;10359812;28;20088;-84
2022/03/01 22:17:20;;;;;;;19.85;12.55;;;;;;;2.44;70.10;102495.00;10343900;28;20053;-84
2022/03/01 22:22:20;;;;;;;21.58;12.18;;;;;;;2.56;67.68;102491.88;10325415;28;20389;-85
2022/03/01 22:27:21;;;;;;;20.00;11.05;;;;;;;2.71;65.05;102484.81;10352486;28;20041;-84
2022/03/01 22:32:21;;;;;;;21.67;12.85;;;;;;;2.70;65.68;102483.91;10358752;28;20495;-86
2022/03/01 22:37:22;;;;;;;18.75;11.75;;;;;;;2.66;65.11;102481.75;10329981;28;20128;-86
2022/03/01 22:42:22;;;;;;;23.00;12.75;;;;;;;2.70;64.65;102490.75;10336057;28;20121;-86
2022/03/01 22:47:23;;;;;;;23.83;13.85;;;;;;;2.89;66.38;102491.03;10314892;28;20108;-86
2022/03/01 22:52:25;;;;;;;21.50;15.38;;;;;;;2.75;68.33;102489.56;10348628;28;20042;-86